sensor_id;sensor_type;location;lat;lon;timestamp;pressure;altitude;pressure_sealevel;temperature;humidity
46846;BME280;33947;46.804;134.252;2022-12-07T00:01:31;100501.19;;;-7.99;63.50
46846;BME280;33947;46.804;134.252;2022-12-07T00:04:36;100488.25;;;-6.84;61.91
46846;BME280;33947;46.804;134.252;2022-12-07T00:07:40;100504.72;;;-6.61;62.41
46846;BME280;33947;46.804;134.252;2022-12-07T00:10:45;100505.28;;;-6.47;63.74
46846;BME280;33947;46.804;134.252;2022-12-07T00:13:55;100497.34;;;-6.30;63.40
46846;BME280;33947;46.804;134.252;2022-12-07T00:17:00;100500.63;;;-6.34;63.48
46846;BME280;33947;46.804;134.252;2022-12-07T00:20:05;100504.94;;;-6.35;63.78
46846;BME280;33947;46.804;134.252;2022-12-07T00:23:09;100507.50;;;-6.14;62.96
46846;BME280;33947;46.804;134.252;2022-12-07T00:26:22;100506.09;;;-5.13;62.29
46846;BME280;33947;46.804;134.252;2022-12-07T00:29:26;100511.59;;;-4.53;58.98
46846;BME280;33947;46.804;134.252;2022-12-07T00:32:30;100503.75;;;-4.29;57.33
46846;BME280;33947;46.804;134.252;2022-12-07T00:35:35;100513.31;;;-4.80;56.62
46846;BME280;33947;46.804;134.252;2022-12-07T00:38:39;100542.84;;;-5.46;57.56
46846;BME280;33947;46.804;134.252;2022-12-07T00:41:44;100545.47;;;-6.13;59.63
46846;BME280;33947;46.804;134.252;2022-12-07T00:44:48;100527.72;;;-6.03;58.84
46846;BME280;33947;46.804;134.252;2022-12-07T00:47:53;100544.88;;;-6.05;58.49
46846;BME280;33947;46.804;134.252;2022-12-07T00:50:57;100550.38;;;-6.81;60.25
46846;BME280;33947;46.804;134.252;2022-12-07T00:54:02;100555.00;;;-6.12;59.50
46846;BME280;33947;46.804;134.252;2022-12-07T00:57:06;100534.78;;;-5.54;57.55
46846;BME280;33947;46.804;134.252;2022-12-07T01:00:11;100533.69;;;-5.13;57.52
46846;BME280;33947;46.804;134.252;2022-12-07T01:03:16;100544.22;;;-4.08;55.06
46846;BME280;33947;46.804;134.252;2022-12-07T01:06:22;100526.88;;;-3.24;52.94
46846;BME280;33947;46.804;134.252;2022-12-07T01:09:27;100539.97;;;-2.88;51.48
46846;BME280;33947;46.804;134.252;2022-12-07T01:12:31;100542.19;;;-2.38;50.96
46846;BME280;33947;46.804;134.252;2022-12-07T01:15:39;100533.47;;;-2.07;49.68
46846;BME280;33947;46.804;134.252;2022-12-07T01:18:47;100553.81;;;-2.25;50.36
46846;BME280;33947;46.804;134.252;2022-12-07T01:21:51;100545.78;;;-2.99;51.39
46846;BME280;33947;46.804;134.252;2022-12-07T01:24:55;100546.59;;;-3.59;52.10
46846;BME280;33947;46.804;134.252;2022-12-07T01:27:59;100537.00;;;-3.62;53.62
46846;BME280;33947;46.804;134.252;2022-12-07T01:31:09;100554.47;;;-3.58;53.02
46846;BME280;33947;46.804;134.252;2022-12-07T01:34:15;100527.84;;;-4.33;53.35
46846;BME280;33947;46.804;134.252;2022-12-07T01:37:20;100524.63;;;-4.52;54.79
46846;BME280;33947;46.804;134.252;2022-12-07T01:40:25;100566.56;;;-4.38;53.99
46846;BME280;33947;46.804;134.252;2022-12-07T01:43:31;100575.63;;;-4.76;54.10
46846;BME280;33947;46.804;134.252;2022-12-07T01:46:37;100570.66;;;-4.95;56.29
46846;BME280;33947;46.804;134.252;2022-12-07T01:49:47;100571.50;;;-4.94;55.06
46846;BME280;33947;46.804;134.252;2022-12-07T01:52:54;100571.84;;;-5.09;56.72
46846;BME280;33947;46.804;134.252;2022-12-07T01:56:00;100576.47;;;-4.76;55.24
46846;BME280;33947;46.804;134.252;2022-12-07T01:59:04;100573.63;;;-4.59;54.93
46846;BME280;33947;46.804;134.252;2022-12-07T02:02:15;100573.25;;;-4.70;53.81
46846;BME280;33947;46.804;134.252;2022-12-07T02:05:24;100569.00;;;-4.92;56.18
46846;BME280;33947;46.804;134.252;2022-12-07T02:08:29;100548.31;;;-4.67;54.64
46846;BME280;33947;46.804;134.252;2022-12-07T02:11:34;100569.41;;;-4.80;54.76
46846;BME280;33947;46.804;134.252;2022-12-07T02:14:39;100541.13;;;-4.49;54.50
46846;BME280;33947;46.804;134.252;2022-12-07T02:30:52;100560.38;;;-3.33;51.47
46846;BME280;33947;46.804;134.252;2022-12-07T02:34:18;100497.63;;;-3.47;50.77
46846;BME280;33947;46.804;134.252;2022-12-07T02:40:40;100537.09;;;-3.30;51.08
46846;BME280;33947;46.804;134.252;2022-12-07T02:43:57;100536.75;;;-3.12;50.77
46846;BME280;33947;46.804;134.252;2022-12-07T02:47:07;100536.56;;;-3.18;50.52
46846;BME280;33947;46.804;134.252;2022-12-07T02:50:19;100483.31;;;-3.63;50.63
46846;BME280;33947;46.804;134.252;2022-12-07T03:00:07;100525.47;;;-3.12;49.63
46846;BME280;33947;46.804;134.252;2022-12-07T03:03:14;100511.41;;;-3.21;49.24
46846;BME280;33947;46.804;134.252;2022-12-07T03:06:31;100507.66;;;-3.30;49.25
46846;BME280;33947;46.804;134.252;2022-12-07T03:10:08;100529.84;;;-3.11;48.84
46846;BME280;33947;46.804;134.252;2022-12-07T03:16:37;100507.94;;;-3.50;50.01
46846;BME280;33947;46.804;134.252;2022-12-07T03:19:45;100521.41;;;-3.91;50.57
46846;BME280;33947;46.804;134.252;2022-12-07T03:22:51;100522.94;;;-4.24;51.71
46846;BME280;33947;46.804;134.252;2022-12-07T03:26:00;100464.03;;;-4.28;51.61
46846;BME280;33947;46.804;134.252;2022-12-07T03:29:09;100498.97;;;-3.89;51.32
46846;BME280;33947;46.804;134.252;2022-12-07T03:32:23;100469.28;;;-4.26;50.80
46846;BME280;33947;46.804;134.252;2022-12-07T03:41:41;100504.03;;;-3.94;50.76
46846;BME280;33947;46.804;134.252;2022-12-07T03:44:47;100517.97;;;-3.61;50.25
46846;BME280;33947;46.804;134.252;2022-12-07T03:48:35;100524.66;;;-3.40;49.84
46846;BME280;33947;46.804;134.252;2022-12-07T03:51:30;100523.72;;;-3.73;49.62
46846;BME280;33947;46.804;134.252;2022-12-07T03:58:06;100507.31;;;-5.03;53.81
46846;BME280;33947;46.804;134.252;2022-12-07T04:01:11;100501.69;;;-4.91;55.07
46846;BME280;33947;46.804;134.252;2022-12-07T04:04:16;100494.91;;;-4.61;54.39
46846;BME280;33947;46.804;134.252;2022-12-07T04:07:21;100518.09;;;-4.14;52.95
46846;BME280;33947;46.804;134.252;2022-12-07T04:10:25;100522.72;;;-4.31;53.45
46846;BME280;33947;46.804;134.252;2022-12-07T04:13:29;100530.00;;;-4.19;53.86
46846;BME280;33947;46.804;134.252;2022-12-07T04:16:56;100520.69;;;-4.14;53.33
46846;BME280;33947;46.804;134.252;2022-12-07T04:20:01;100531.22;;;-4.36;53.99
46846;BME280;33947;46.804;134.252;2022-12-07T04:23:05;100531.53;;;-4.26;54.30
46846;BME280;33947;46.804;134.252;2022-12-07T04:26:10;100529.34;;;-4.66;55.11
46846;BME280;33947;46.804;134.252;2022-12-07T04:29:15;100532.19;;;-4.32;55.09
46846;BME280;33947;46.804;134.252;2022-12-07T04:32:21;100544.22;;;-4.08;54.24
46846;BME280;33947;46.804;134.252;2022-12-07T04:35:25;100536.66;;;-4.00;53.94
46846;BME280;33947;46.804;134.252;2022-12-07T04:38:30;100546.81;;;-3.81;53.23
46846;BME280;33947;46.804;134.252;2022-12-07T04:41:34;100551.31;;;-4.02;53.58
46846;BME280;33947;46.804;134.252;2022-12-07T04:44:39;100555.56;;;-4.04;54.14
46846;BME280;33947;46.804;134.252;2022-12-07T04:47:43;100554.53;;;-4.61;55.22
46846;BME280;33947;46.804;134.252;2022-12-07T04:50:48;100553.44;;;-4.68;57.56
46846;BME280;33947;46.804;134.252;2022-12-07T04:53:56;100558.91;;;-4.60;57.21
46846;BME280;33947;46.804;134.252;2022-12-07T04:57:00;100564.75;;;-4.90;58.51
46846;BME280;33947;46.804;134.252;2022-12-07T05:00:06;100561.59;;;-5.06;59.60
46846;BME280;33947;46.804;134.252;2022-12-07T05:03:11;100561.94;;;-4.97;59.85
46846;BME280;33947;46.804;134.252;2022-12-07T05:06:15;100563.75;;;-4.70;58.26
46846;BME280;33947;46.804;134.252;2022-12-07T05:09:19;100560.94;;;-4.76;58.72
46846;BME280;33947;46.804;134.252;2022-12-07T05:12:24;100557.97;;;-4.87;58.99
46846;BME280;33947;46.804;134.252;2022-12-07T05:15:29;100556.56;;;-5.01;59.02
46846;BME280;33947;46.804;134.252;2022-12-07T05:18:34;100548.44;;;-5.35;60.81
46846;BME280;33947;46.804;134.252;2022-12-07T05:21:39;100573.03;;;-5.01;59.95
46846;BME280;33947;46.804;134.252;2022-12-07T05:24:43;100555.53;;;-5.06;60.49
46846;BME280;33947;46.804;134.252;2022-12-07T05:27:47;100541.72;;;-5.53;61.27
46846;BME280;33947;46.804;134.252;2022-12-07T05:30:52;100574.25;;;-5.14;60.50
46846;BME280;33947;46.804;134.252;2022-12-07T05:34:01;100578.44;;;-5.63;63.59
46846;BME280;33947;46.804;134.252;2022-12-07T05:37:06;100577.31;;;-5.91;65.53
46846;BME280;33947;46.804;134.252;2022-12-07T05:40:14;100581.75;;;-5.44;64.02
46846;BME280;33947;46.804;134.252;2022-12-07T05:43:19;100569.28;;;-5.76;64.53
46846;BME280;33947;46.804;134.252;2022-12-07T05:46:23;100584.69;;;-5.79;65.38
46846;BME280;33947;46.804;134.252;2022-12-07T05:49:28;100575.63;;;-5.90;66.22
46846;BME280;33947;46.804;134.252;2022-12-07T05:52:32;100570.63;;;-5.64;64.96
46846;BME280;33947;46.804;134.252;2022-12-07T05:55:37;100580.31;;;-5.59;64.78
46846;BME280;33947;46.804;134.252;2022-12-07T05:58:41;100572.63;;;-6.01;67.46
46846;BME280;33947;46.804;134.252;2022-12-07T06:02:07;100588.19;;;-6.00;67.68
46846;BME280;33947;46.804;134.252;2022-12-07T06:05:12;100591.69;;;-6.20;68.83
46846;BME280;33947;46.804;134.252;2022-12-07T06:08:16;100578.50;;;-6.05;68.08
46846;BME280;33947;46.804;134.252;2022-12-07T06:11:20;100599.72;;;-5.70;66.51
46846;BME280;33947;46.804;134.252;2022-12-07T06:14:43;100595.69;;;-5.63;65.43
46846;BME280;33947;46.804;134.252;2022-12-07T06:17:48;100602.53;;;-5.87;66.56
46846;BME280;33947;46.804;134.252;2022-12-07T06:20:53;100612.75;;;-6.11;67.23
46846;BME280;33947;46.804;134.252;2022-12-07T06:23:58;100626.69;;;-6.48;68.70
46846;BME280;33947;46.804;134.252;2022-12-07T06:27:02;100641.25;;;-6.50;69.56
46846;BME280;33947;46.804;134.252;2022-12-07T06:30:07;100643.31;;;-6.63;69.94
46846;BME280;33947;46.804;134.252;2022-12-07T06:33:12;100651.66;;;-6.49;68.91
46846;BME280;33947;46.804;134.252;2022-12-07T06:36:17;100635.63;;;-6.61;68.92
46846;BME280;33947;46.804;134.252;2022-12-07T06:39:29;100639.50;;;-6.71;70.25
46846;BME280;33947;46.804;134.252;2022-12-07T06:42:33;100659.53;;;-6.65;69.84
46846;BME280;33947;46.804;134.252;2022-12-07T06:45:39;100642.28;;;-6.47;68.45
46846;BME280;33947;46.804;134.252;2022-12-07T06:48:44;100663.78;;;-6.48;67.78
46846;BME280;33947;46.804;134.252;2022-12-07T06:51:48;100659.81;;;-6.40;67.82
46846;BME280;33947;46.804;134.252;2022-12-07T06:54:53;100666.38;;;-6.07;65.79
46846;BME280;33947;46.804;134.252;2022-12-07T06:57:57;100668.50;;;-5.97;65.38
46846;BME280;33947;46.804;134.252;2022-12-07T07:01:01;100661.44;;;-6.22;66.25
46846;BME280;33947;46.804;134.252;2022-12-07T07:04:07;100674.44;;;-6.60;68.02
46846;BME280;33947;46.804;134.252;2022-12-07T07:07:11;100665.38;;;-6.70;67.75
46846;BME280;33947;46.804;134.252;2022-12-07T07:10:16;100663.75;;;-6.68;67.50
46846;BME280;33947;46.804;134.252;2022-12-07T07:13:21;100668.88;;;-6.69;67.28
46846;BME280;33947;46.804;134.252;2022-12-07T07:16:25;100671.31;;;-6.72;66.80
46846;BME280;33947;46.804;134.252;2022-12-07T07:19:30;100662.56;;;-6.94;67.56
46846;BME280;33947;46.804;134.252;2022-12-07T07:22:34;100673.16;;;-7.07;67.78
46846;BME280;33947;46.804;134.252;2022-12-07T07:25:39;100682.88;;;-7.20;67.92
46846;BME280;33947;46.804;134.252;2022-12-07T07:28:43;100675.91;;;-7.59;67.89
46846;BME280;33947;46.804;134.252;2022-12-07T07:31:47;100689.47;;;-7.63;68.10
46846;BME280;33947;46.804;134.252;2022-12-07T07:34:52;100668.78;;;-7.99;69.45
46846;BME280;33947;46.804;134.252;2022-12-07T07:37:56;100687.63;;;-8.00;70.40
46846;BME280;33947;46.804;134.252;2022-12-07T07:41:01;100687.03;;;-8.12;71.10
46846;BME280;33947;46.804;134.252;2022-12-07T07:44:05;100684.31;;;-7.97;68.67
46846;BME280;33947;46.804;134.252;2022-12-07T07:47:10;100698.56;;;-7.88;68.14
46846;BME280;33947;46.804;134.252;2022-12-07T07:50:15;100713.31;;;-8.02;67.02
46846;BME280;33947;46.804;134.252;2022-12-07T07:53:19;100711.44;;;-8.22;68.10
46846;BME280;33947;46.804;134.252;2022-12-07T07:56:24;100717.59;;;-8.19;67.66
46846;BME280;33947;46.804;134.252;2022-12-07T07:59:28;100709.56;;;-8.08;67.55
46846;BME280;33947;46.804;134.252;2022-12-07T08:02:32;100707.16;;;-8.22;67.87
46846;BME280;33947;46.804;134.252;2022-12-07T08:05:38;100724.78;;;-8.13;68.11
46846;BME280;33947;46.804;134.252;2022-12-07T08:08:42;100727.63;;;-7.74;68.03
46846;BME280;33947;46.804;134.252;2022-12-07T08:11:46;100744.88;;;-7.38;66.55
46846;BME280;33947;46.804;134.252;2022-12-07T08:14:51;100738.41;;;-7.46;66.50
46846;BME280;33947;46.804;134.252;2022-12-07T08:17:55;100724.59;;;-7.83;67.19
46846;BME280;33947;46.804;134.252;2022-12-07T08:21:00;100739.19;;;-8.00;68.63
46846;BME280;33947;46.804;134.252;2022-12-07T08:24:05;100732.22;;;-7.85;67.29
46846;BME280;33947;46.804;134.252;2022-12-07T08:27:09;100720.69;;;-8.09;68.31
46846;BME280;33947;46.804;134.252;2022-12-07T08:30:14;100718.66;;;-8.15;67.72
46846;BME280;33947;46.804;134.252;2022-12-07T08:33:18;100739.19;;;-8.17;69.46
46846;BME280;33947;46.804;134.252;2022-12-07T08:36:26;100733.56;;;-8.43;68.43
46846;BME280;33947;46.804;134.252;2022-12-07T08:39:31;100736.00;;;-8.62;68.55
46846;BME280;33947;46.804;134.252;2022-12-07T08:42:35;100726.31;;;-8.83;69.58
46846;BME280;33947;46.804;134.252;2022-12-07T08:45:43;100739.25;;;-8.81;69.50
46846;BME280;33947;46.804;134.252;2022-12-07T08:49:03;100734.84;;;-8.84;68.97
46846;BME280;33947;46.804;134.252;2022-12-07T08:52:09;100760.06;;;-8.93;68.44
46846;BME280;33947;46.804;134.252;2022-12-07T08:55:13;100742.13;;;-9.23;68.79
46846;BME280;33947;46.804;134.252;2022-12-07T08:58:18;100772.69;;;-8.98;68.55
46846;BME280;33947;46.804;134.252;2022-12-07T09:01:23;100775.88;;;-8.87;67.72
46846;BME280;33947;46.804;134.252;2022-12-07T09:04:27;100771.41;;;-8.75;67.63
46846;BME280;33947;46.804;134.252;2022-12-07T09:07:34;100776.34;;;-8.63;66.87
46846;BME280;33947;46.804;134.252;2022-12-07T09:10:38;100769.63;;;-8.59;65.93
46846;BME280;33947;46.804;134.252;2022-12-07T09:13:43;100767.31;;;-8.71;65.94
46846;BME280;33947;46.804;134.252;2022-12-07T09:16:47;100784.53;;;-8.70;65.88
46846;BME280;33947;46.804;134.252;2022-12-07T09:19:52;100788.94;;;-8.99;67.91
46846;BME280;33947;46.804;134.252;2022-12-07T09:22:57;100781.75;;;-9.05;68.43
46846;BME280;33947;46.804;134.252;2022-12-07T09:26:02;100791.88;;;-9.08;68.06
46846;BME280;33947;46.804;134.252;2022-12-07T09:29:12;100789.50;;;-9.20;68.72
46846;BME280;33947;46.804;134.252;2022-12-07T09:32:17;100789.19;;;-8.94;67.75
46846;BME280;33947;46.804;134.252;2022-12-07T09:35:22;100794.44;;;-9.08;68.38
46846;BME280;33947;46.804;134.252;2022-12-07T09:38:27;100797.50;;;-8.83;66.92
46846;BME280;33947;46.804;134.252;2022-12-07T09:41:41;100797.84;;;-8.77;66.77
46846;BME280;33947;46.804;134.252;2022-12-07T09:44:46;100802.28;;;-9.21;66.93
46846;BME280;33947;46.804;134.252;2022-12-07T09:47:51;100805.53;;;-9.69;69.28
46846;BME280;33947;46.804;134.252;2022-12-07T09:50:58;100809.47;;;-9.61;70.13
46846;BME280;33947;46.804;134.252;2022-12-07T09:54:03;100758.72;;;-9.78;68.55
46846;BME280;33947;46.804;134.252;2022-12-07T09:57:10;100798.13;;;-9.49;68.94
46846;BME280;33947;46.804;134.252;2022-12-07T10:00:19;100826.25;;;-9.22;67.57
46846;BME280;33947;46.804;134.252;2022-12-07T10:03:27;100822.59;;;-9.26;66.45
46846;BME280;33947;46.804;134.252;2022-12-07T10:06:32;100821.25;;;-9.49;65.56
46846;BME280;33947;46.804;134.252;2022-12-07T10:09:36;100821.91;;;-9.97;67.15
46846;BME280;33947;46.804;134.252;2022-12-07T10:13:03;100843.84;;;-10.72;72.06
46846;BME280;33947;46.804;134.252;2022-12-07T10:19:33;100826.47;;;-10.06;68.19
46846;BME280;33947;46.804;134.252;2022-12-07T10:22:37;100849.63;;;-10.62;68.11
46846;BME280;33947;46.804;134.252;2022-12-07T10:25:42;100854.97;;;-10.45;69.45
46846;BME280;33947;46.804;134.252;2022-12-07T10:28:46;100853.50;;;-10.68;68.48
46846;BME280;33947;46.804;134.252;2022-12-07T10:31:58;100845.03;;;-10.67;69.48
46846;BME280;33947;46.804;134.252;2022-12-07T10:35:24;100871.19;;;-10.73;67.06
46846;BME280;33947;46.804;134.252;2022-12-07T10:38:29;100860.03;;;-11.14;69.50
46846;BME280;33947;46.804;134.252;2022-12-07T10:42:01;100877.59;;;-10.80;71.42
46846;BME280;33947;46.804;134.252;2022-12-07T10:45:18;100880.47;;;-10.88;69.47
46846;BME280;33947;46.804;134.252;2022-12-07T10:58:27;100894.19;;;-10.74;69.11
46846;BME280;33947;46.804;134.252;2022-12-07T11:02:17;100896.72;;;-10.34;69.52
46846;BME280;33947;46.804;134.252;2022-12-07T11:09:51;100912.84;;;-10.64;69.25
46846;BME280;33947;46.804;134.252;2022-12-07T11:23:18;100911.59;;;-10.15;68.18
46846;BME280;33947;46.804;134.252;2022-12-07T11:46:25;100928.50;;;-10.32;67.45
46846;BME280;33947;46.804;134.252;2022-12-07T11:52:51;100938.00;;;-10.44;69.21
46846;BME280;33947;46.804;134.252;2022-12-07T11:56:21;100955.59;;;-10.78;68.32
46846;BME280;33947;46.804;134.252;2022-12-07T11:59:45;100960.81;;;-10.76;68.71
46846;BME280;33947;46.804;134.252;2022-12-07T12:06:04;100963.69;;;-11.24;68.64
46846;BME280;33947;46.804;134.252;2022-12-07T12:23:04;100985.38;;;-11.69;68.84
46846;BME280;33947;46.804;134.252;2022-12-07T12:26:23;100986.81;;;-11.36;68.35
46846;BME280;33947;46.804;134.252;2022-12-07T12:33:14;101003.72;;;-12.00;67.90
46846;BME280;33947;46.804;134.252;2022-12-07T12:36:24;101000.63;;;-12.20;68.84
46846;BME280;33947;46.804;134.252;2022-12-07T12:39:29;101002.81;;;-12.13;67.38
46846;BME280;33947;46.804;134.252;2022-12-07T12:42:50;101001.28;;;-12.46;67.97
46846;BME280;33947;46.804;134.252;2022-12-07T12:49:38;101009.38;;;-11.93;68.56
46846;BME280;33947;46.804;134.252;2022-12-07T13:02:30;100992.75;;;-12.47;68.53
46846;BME280;33947;46.804;134.252;2022-12-07T13:05:36;100965.13;;;-12.63;66.67
46846;BME280;33947;46.804;134.252;2022-12-07T13:08:41;100999.59;;;-12.34;67.00
46846;BME280;33947;46.804;134.252;2022-12-07T13:11:46;101008.06;;;-12.35;66.61
46846;BME280;33947;46.804;134.252;2022-12-07T13:14:58;101020.19;;;-12.68;66.04
46846;BME280;33947;46.804;134.252;2022-12-07T13:24:32;101027.94;;;-13.25;67.78
46846;BME280;33947;46.804;134.252;2022-12-07T13:27:42;101035.97;;;-13.08;66.87
46846;BME280;33947;46.804;134.252;2022-12-07T13:31:23;101023.47;;;-13.27;67.89
46846;BME280;33947;46.804;134.252;2022-12-07T13:34:32;101028.63;;;-13.15;67.87
46846;BME280;33947;46.804;134.252;2022-12-07T13:37:38;101038.16;;;-13.47;66.72
46846;BME280;33947;46.804;134.252;2022-12-07T13:40:42;101030.06;;;-13.41;67.06
46846;BME280;33947;46.804;134.252;2022-12-07T13:43:53;101041.03;;;-13.20;66.89
46846;BME280;33947;46.804;134.252;2022-12-07T13:47:04;101030.16;;;-13.74;67.02
46846;BME280;33947;46.804;134.252;2022-12-07T13:50:31;101046.84;;;-13.45;67.15
46846;BME280;33947;46.804;134.252;2022-12-07T13:53:46;101061.94;;;-13.48;67.61
46846;BME280;33947;46.804;134.252;2022-12-07T13:56:52;101065.31;;;-13.15;67.93
46846;BME280;33947;46.804;134.252;2022-12-07T13:59:57;101072.63;;;-12.97;67.13
46846;BME280;33947;46.804;134.252;2022-12-07T14:03:32;101067.84;;;-13.15;66.55
46846;BME280;33947;46.804;134.252;2022-12-07T14:06:36;101055.63;;;-13.19;66.79
46846;BME280;33947;46.804;134.252;2022-12-07T14:13:00;101076.72;;;-13.66;67.06
46846;BME280;33947;46.804;134.252;2022-12-07T14:16:34;101087.66;;;-13.79;66.71
46846;BME280;33947;46.804;134.252;2022-12-07T14:23:30;101083.47;;;-13.89;69.54
46846;BME280;33947;46.804;134.252;2022-12-07T14:26:36;101095.28;;;-13.69;70.03
46846;BME280;33947;46.804;134.252;2022-12-07T14:29:41;101080.78;;;-13.35;68.71
46846;BME280;33947;46.804;134.252;2022-12-07T14:32:50;101090.31;;;-13.11;67.90
46846;BME280;33947;46.804;134.252;2022-12-07T14:35:55;101096.00;;;-12.81;66.67
46846;BME280;33947;46.804;134.252;2022-12-07T14:39:01;101082.31;;;-12.93;65.54
46846;BME280;33947;46.804;134.252;2022-12-07T14:42:10;101085.53;;;-13.40;66.86
46846;BME280;33947;46.804;134.252;2022-12-07T14:45:18;101044.44;;;-13.43;67.18
46846;BME280;33947;46.804;134.252;2022-12-07T14:48:23;101094.97;;;-13.17;66.60
46846;BME280;33947;46.804;134.252;2022-12-07T14:51:47;101080.78;;;-13.35;67.23
46846;BME280;33947;46.804;134.252;2022-12-07T14:55:34;101092.69;;;-12.80;67.43
46846;BME280;33947;46.804;134.252;2022-12-07T14:58:38;101082.84;;;-12.63;65.55
46846;BME280;33947;46.804;134.252;2022-12-07T15:01:43;101088.41;;;-12.57;64.67
46846;BME280;33947;46.804;134.252;2022-12-07T15:04:47;101095.41;;;-12.88;65.16
46846;BME280;33947;46.804;134.252;2022-12-07T15:07:51;101092.66;;;-13.14;66.06
46846;BME280;33947;46.804;134.252;2022-12-07T15:10:56;101096.88;;;-12.92;67.50
46846;BME280;33947;46.804;134.252;2022-12-07T15:14:00;101096.63;;;-12.95;67.25
46846;BME280;33947;46.804;134.252;2022-12-07T15:17:14;101086.38;;;-12.73;67.56
46846;BME280;33947;46.804;134.252;2022-12-07T15:20:31;101079.50;;;-12.96;67.33
46846;BME280;33947;46.804;134.252;2022-12-07T15:23:36;101092.75;;;-12.56;66.94
46846;BME280;33947;46.804;134.252;2022-12-07T15:26:41;101094.56;;;-12.43;64.86
46846;BME280;33947;46.804;134.252;2022-12-07T15:29:45;101096.25;;;-12.77;66.48
46846;BME280;33947;46.804;134.252;2022-12-07T15:32:51;101094.69;;;-12.75;65.73
46846;BME280;33947;46.804;134.252;2022-12-07T15:35:56;101086.47;;;-12.83;65.97
46846;BME280;33947;46.804;134.252;2022-12-07T15:39:03;101087.53;;;-13.14;65.82
46846;BME280;33947;46.804;134.252;2022-12-07T15:42:17;101082.72;;;-12.99;66.43
46846;BME280;33947;46.804;134.252;2022-12-07T15:45:21;101078.09;;;-12.81;65.48
46846;BME280;33947;46.804;134.252;2022-12-07T15:48:26;101078.50;;;-12.64;65.13
46846;BME280;33947;46.804;134.252;2022-12-07T15:51:31;101095.69;;;-12.73;64.62
46846;BME280;33947;46.804;134.252;2022-12-07T15:54:35;101073.91;;;-12.80;64.33
46846;BME280;33947;46.804;134.252;2022-12-07T15:57:40;101072.31;;;-12.90;64.65
46846;BME280;33947;46.804;134.252;2022-12-07T16:00:44;101045.34;;;-13.43;64.48
46846;BME280;33947;46.804;134.252;2022-12-07T16:03:48;101074.91;;;-13.34;64.66
46846;BME280;33947;46.804;134.252;2022-12-07T16:06:53;101067.53;;;-13.42;65.38
46846;BME280;33947;46.804;134.252;2022-12-07T16:09:57;101063.81;;;-13.23;64.85
46846;BME280;33947;46.804;134.252;2022-12-07T16:13:02;101067.78;;;-13.27;64.27
46846;BME280;33947;46.804;134.252;2022-12-07T16:16:15;101073.09;;;-13.13;64.87
46846;BME280;33947;46.804;134.252;2022-12-07T16:19:20;101080.53;;;-13.93;64.89
46846;BME280;33947;46.804;134.252;2022-12-07T16:22:25;101078.81;;;-14.26;65.37
46846;BME280;33947;46.804;134.252;2022-12-07T16:25:29;101096.84;;;-14.45;66.35
46846;BME280;33947;46.804;134.252;2022-12-07T16:28:35;101100.03;;;-14.68;65.66
46846;BME280;33947;46.804;134.252;2022-12-07T16:31:40;101094.19;;;-14.57;67.79
46846;BME280;33947;46.804;134.252;2022-12-07T16:34:44;101091.88;;;-14.43;66.40
46846;BME280;33947;46.804;134.252;2022-12-07T16:37:48;101094.66;;;-14.19;65.93
46846;BME280;33947;46.804;134.252;2022-12-07T16:40:53;101096.97;;;-14.43;65.58
46846;BME280;33947;46.804;134.252;2022-12-07T16:44:03;101102.63;;;-14.58;65.18
46846;BME280;33947;46.804;134.252;2022-12-07T16:47:08;101109.13;;;-14.92;66.15
46846;BME280;33947;46.804;134.252;2022-12-07T16:50:13;101092.31;;;-15.40;71.65
46846;BME280;33947;46.804;134.252;2022-12-07T16:53:17;101102.75;;;-14.87;69.55
46846;BME280;33947;46.804;134.252;2022-12-07T16:56:22;101113.16;;;-15.15;67.33
46846;BME280;33947;46.804;134.252;2022-12-07T16:59:27;101107.50;;;-15.32;67.65
46846;BME280;33947;46.804;134.252;2022-12-07T17:02:31;101116.44;;;-15.27;67.14
46846;BME280;33947;46.804;134.252;2022-12-07T17:05:40;101127.91;;;-15.21;68.09
46846;BME280;33947;46.804;134.252;2022-12-07T17:08:47;101113.47;;;-15.42;66.26
46846;BME280;33947;46.804;134.252;2022-12-07T17:11:52;101135.44;;;-15.23;66.48
46846;BME280;33947;46.804;134.252;2022-12-07T17:14:56;101135.78;;;-15.68;66.30
46846;BME280;33947;46.804;134.252;2022-12-07T17:18:19;101158.34;;;-15.82;66.30
46846;BME280;33947;46.804;134.252;2022-12-07T17:21:23;101155.53;;;-15.95;66.70
46846;BME280;33947;46.804;134.252;2022-12-07T17:24:28;101150.16;;;-15.98;65.69
46846;BME280;33947;46.804;134.252;2022-12-07T17:27:32;101164.50;;;-16.37;65.78
46846;BME280;33947;46.804;134.252;2022-12-07T17:30:38;101157.22;;;-16.62;66.01
46846;BME280;33947;46.804;134.252;2022-12-07T17:33:42;101156.81;;;-16.48;66.89
46846;BME280;33947;46.804;134.252;2022-12-07T17:36:46;101154.22;;;-16.20;66.28
46846;BME280;33947;46.804;134.252;2022-12-07T17:39:52;101149.50;;;-16.53;66.11
46846;BME280;33947;46.804;134.252;2022-12-07T17:42:59;101152.44;;;-16.68;65.81
46846;BME280;33947;46.804;134.252;2022-12-07T17:46:08;101162.59;;;-16.40;66.53
46846;BME280;33947;46.804;134.252;2022-12-07T17:49:13;101170.28;;;-16.49;65.45
46846;BME280;33947;46.804;134.252;2022-12-07T17:52:17;101168.25;;;-16.62;65.75
46846;BME280;33947;46.804;134.252;2022-12-07T17:55:40;101152.31;;;-16.50;65.87
46846;BME280;33947;46.804;134.252;2022-12-07T17:59:05;101125.22;;;-16.69;65.19
46846;BME280;33947;46.804;134.252;2022-12-07T18:02:10;101160.34;;;-16.37;65.49
46846;BME280;33947;46.804;134.252;2022-12-07T18:05:14;101155.63;;;-16.51;64.21